Time;durP1;ratioP1;P1;durP2;ratioP2;P2;SDS_P1;SDS_P2;PMS_P1;PMS_P2;Temp;Humidity;BMP_temperature;BMP_pressure;BME280_temperature;BME280_humidity;BME280_pressure;Samples;Min_cycle;Max_cycle;Signal;HPM_P1;HPM_P2
2022/08/03 00:01:10;;;;;;;0.90;0.50;;;15.40;99.90;;;;;;4976055;28;20035;-72
2022/08/03 00:03:38;;;;;;;2.60;1.10;;;15.30;99.90;;;;;;4976136;28;20498;-72
2022/08/03 00:06:06;;;;;;;1.10;0.63;;;15.40;99.90;;;;;;4975625;28;20166;-72
2022/08/03 00:08:33;;;;;;;2.65;0.73;;;15.40;99.90;;;;;;4975583;28;20022;-72
2022/08/03 00:11:00;;;;;;;1.60;0.60;;;15.40;99.90;;;;;;4974319;28;20027;-73
2022/08/03 00:13:28;;;;;;;0.60;0.50;;;15.40;99.90;;;;;;4975557;28;20074;-72
2022/08/03 00:15:55;;;;;;;1.15;0.55;;;15.50;99.90;;;;;;4974114;28;20113;-71
2022/08/03 00:18:23;;;;;;;0.90;0.60;;;15.60;99.90;;;;;;4975445;28;20027;-71
2022/08/03 00:20:50;;;;;;;2.00;0.73;;;15.60;99.90;;;;;;4975690;28;20081;-71
2022/08/03 00:23:17;;;;;;;1.17;0.82;;;15.60;99.90;;;;;;4975269;28;20475;-70
2022/08/03 00:25:45;;;;;;;3.05;0.80;;;15.70;99.90;;;;;;4974031;28;20027;-72
2022/08/03 00:28:12;;;;;;;2.33;0.75;;;15.70;99.90;;;;;;4975412;28;20434;-70
2022/08/03 00:30:40;;;;;;;1.65;0.50;;;15.60;99.90;;;;;;4975414;28;20027;-70
2022/08/03 00:33:09;;;;;;;0.68;0.40;;;15.50;99.90;;;;;;4975198;28;20065;-70
2022/08/03 00:35:36;;;;;;;1.23;0.50;;;15.50;99.90;;;;;;4975154;28;20019;-70
2022/08/03 00:38:04;;;;;;;2.95;0.60;;;15.60;99.90;;;;;;4975118;28;20069;-72
2022/08/03 00:40:32;;;;;;;0.60;0.40;;;15.50;99.90;;;;;;4975072;28;20443;-71
2022/08/03 00:43:02;;;;;;;2.45;0.60;;;15.60;99.90;;;;;;4975532;28;20062;-70
2022/08/03 00:45:35;;;;;;;0.85;0.40;;;15.60;99.90;;;;;;4973690;28;20050;-70
2022/08/03 00:48:03;;;;;;;1.45;0.55;;;15.70;99.90;;;;;;4974690;28;20109;-70
2022/08/03 00:50:34;;;;;;;2.05;0.70;;;15.80;99.90;;;;;;4975037;28;20027;-71
2022/08/03 00:53:03;;;;;;;1.17;0.47;;;15.80;99.90;;;;;;4974839;28;20074;-70
2022/08/03 00:55:31;;;;;;;1.42;0.40;;;16.00;99.90;;;;;;4974772;28;20027;-70
2022/08/03 00:58:00;;;;;;;1.38;0.60;;;16.10;99.90;;;;;;4974768;28;20383;-71
2022/08/03 01:00:28;;;;;;;0.80;0.40;;;16.20;99.90;;;;;;4973238;28;20390;-71
2022/08/03 01:02:55;;;;;;;3.03;0.43;;;16.30;99.90;;;;;;4974670;28;20054;-71
2022/08/03 01:05:22;;;;;;;1.35;0.60;;;16.40;99.90;;;;;;4975150;28;20097;-71
2022/08/03 01:08:00;;;;;;;2.63;0.45;;;16.40;99.90;;;;;;4974693;28;20172;-71
2022/08/03 01:10:40;;;;;;;1.42;0.40;;;16.70;99.90;;;;;;4975121;28;20027;-71
2022/08/03 01:13:36;;;;;;;1.33;0.40;;;16.80;99.90;;;;;;4974639;28;20022;-71
2022/08/03 01:16:22;;;;;;;1.75;0.40;;;16.90;99.90;;;;;;4974471;28;20122;-71
2022/08/03 01:18:55;;;;;;;2.17;0.50;;;17.10;99.90;;;;;;4974546;28;20023;-71
2022/08/03 01:21:54;;;;;;;0.77;0.50;;;17.50;99.90;;;;;;4974778;28;20427;-73
2022/08/03 01:24:42;;;;;;;0.75;0.30;;;17.70;99.90;;;;;;4969122;28;20547;-71
2022/08/03 01:27:26;;;;;;;1.40;0.60;;;18.10;99.90;;;;;;4973162;28;20506;-71
2022/08/03 01:29:59;;;;;;;0.98;0.30;;;18.30;99.90;;;;;;4974372;28;20027;-71
2022/08/03 01:32:47;;;;;;;1.50;0.40;;;18.50;99.90;;;;;;4974480;28;20419;-71
2022/08/03 01:35:21;;;;;;;0.90;0.35;;;18.80;99.90;;;;;;4972998;28;20549;-72
2022/08/03 01:37:57;;;;;;;0.95;0.40;;;19.20;99.90;;;;;;4974553;28;20123;-72
2022/08/03 01:40:27;;;;;;;2.20;0.57;;;19.20;99.90;;;;;;4974412;28;20031;-72
2022/08/03 01:42:58;;;;;;;1.80;0.45;;;19.30;99.90;;;;;;4974334;28;20023;-72
2022/08/03 01:45:28;;;;;;;1.75;0.50;;;19.50;99.90;;;;;;4974204;28;20019;-72
2022/08/03 01:47:57;;;;;;;0.40;0.30;;;19.80;99.90;;;;;;4974331;28;20498;-72
2022/08/03 01:50:27;;;;;;;1.23;0.47;;;19.60;99.90;;;;;;4974387;28;20049;-72
2022/08/03 01:52:56;;;;;;;;;;;19.50;99.90;;;;;;4974650;28;20095;-72
2022/08/03 01:55:27;;;;;;;1.58;0.57;;;19.50;99.90;;;;;;4974060;28;19906;-72
2022/08/03 01:57:55;;;;;;;1.52;0.30;;;19.90;99.90;;;;;;4974084;28;20438;-71
2022/08/03 02:00:25;;;;;;;3.15;0.43;;;20.20;99.90;;;;;;4974091;28;20023;-70
2022/08/03 02:02:54;;;;;;;3.17;0.40;;;20.40;99.90;;;;;;4972833;28;20418;-71
2022/08/03 02:05:22;;;;;;;4.10;0.50;;;20.50;99.90;;;;;;4974292;28;20031;-74
2022/08/03 02:07:50;;;;;;;0.90;0.50;;;20.60;99.90;;;;;;4972761;28;20483;-71
2022/08/03 02:10:20;;;;;;;1.35;0.50;;;20.50;99.90;;;;;;4972656;28;20054;-71
2022/08/03 02:12:50;;;;;;;1.67;0.40;;;20.70;99.90;;;;;;4975724;28;20463;-71
2022/08/03 02:15:18;;;;;;;0.95;0.40;;;20.80;99.90;;;;;;4976580;28;20431;-71
2022/08/03 02:17:47;;;;;;;1.52;0.60;;;20.90;99.90;;;;;;4977554;28;20022;-72
2022/08/03 02:20:16;;;;;;;1.58;0.50;;;21.00;99.90;;;;;;4977644;28;20041;-72
2022/08/03 02:22:45;;;;;;;2.92;0.75;;;21.10;99.90;;;;;;4977611;28;20490;-72
2022/08/03 02:25:15;;;;;;;2.10;0.45;;;21.10;99.90;;;;;;4977560;28;20545;-73
2022/08/03 02:28:09;;;;;;;0.75;0.40;;;21.00;99.90;;;;;;4977537;28;20462;-72
2022/08/03 02:30:40;;;;;;;5.28;0.50;;;21.10;99.90;;;;;;4976090;28;20027;-72
2022/08/03 02:33:19;;;;;;;1.95;0.40;;;21.20;99.90;;;;;;4977559;28;20066;-72
2022/08/03 02:35:48;;;;;;;1.23;0.43;;;21.30;99.90;;;;;;4977160;28;20031;-72
2022/08/03 02:38:20;;;;;;;1.77;0.40;;;21.50;99.90;;;;;;4976039;28;20026;-72
2022/08/03 02:40:50;;;;;;;1.27;0.60;;;21.50;99.90;;;;;;4976062;28;20030;-72
2022/08/03 02:43:20;;;;;;;1.30;0.38;;;21.50;99.90;;;;;;4977608;28;20019;-72
2022/08/03 02:45:50;;;;;;;1.05;0.40;;;21.50;99.90;;;;;;4976279;28;20027;-72
2022/08/03 02:48:30;;;;;;;1.02;0.40;;;21.60;99.90;;;;;;4976858;28;20015;-73
2022/08/03 02:50:59;;;;;;;1.27;0.38;;;21.70;99.90;;;;;;4977284;28;20023;-71
2022/08/03 02:53:28;;;;;;;2.08;0.55;;;21.70;99.90;;;;;;4977034;28;20110;-72
2022/08/03 02:55:56;;;;;;;2.88;0.30;;;21.80;99.90;;;;;;4975600;28;20032;-75
2022/08/03 02:58:24;;;;;;;1.50;0.40;;;21.90;99.90;;;;;;4977029;28;20073;-73
2022/08/03 03:00:53;;;;;;;0.88;0.40;;;21.90;99.90;;;;;;4976909;28;20082;-72
2022/08/03 03:03:22;;;;;;;1.50;0.40;;;21.90;99.90;;;;;;4975493;28;20051;-72
2022/08/03 03:05:50;;;;;;;2.28;0.43;;;22.00;99.90;;;;;;4975546;28;20031;-72
2022/08/03 03:08:19;;;;;;;1.17;0.47;;;22.10;99.90;;;;;;4975295;28;20078;-73
2022/08/03 03:10:47;;;;;;;0.80;0.43;;;22.10;99.90;;;;;;4976820;28;20019;-73
2022/08/03 03:13:17;;;;;;;1.90;0.50;;;22.20;99.90;;;;;;4976746;28;20093;-74
2022/08/03 03:15:46;;;;;;;1.92;0.60;;;22.40;99.90;;;;;;4975245;28;20439;-74
2022/08/03 03:18:15;;;;;;;2.05;0.77;;;22.40;99.90;;;;;;4976772;28;20047;-74
2022/08/03 03:20:44;;;;;;;1.50;0.40;;;22.40;99.90;;;;;;4976547;28;20046;-73
2022/08/03 03:23:12;;;;;;;1.45;0.40;;;22.20;99.90;;;;;;4976371;28;20126;-72
2022/08/03 03:25:41;;;;;;;1.45;0.50;;;22.40;99.90;;;;;;4976715;28;20391;-73
2022/08/03 03:28:09;;;;;;;1.42;0.35;;;22.40;99.90;;;;;;4974958;28;20023;-73
2022/08/03 03:30:37;;;;;;;0.75;0.30;;;22.40;99.90;;;;;;4976501;28;20057;-73
2022/08/03 03:33:04;;;;;;;1.75;0.47;;;22.30;99.90;;;;;;4975090;28;20027;-72
2022/08/03 03:35:33;;;;;;;1.50;0.52;;;22.30;99.90;;;;;;4976353;28;20034;-73
2022/08/03 03:38:00;;;;;;;2.45;0.40;;;22.40;99.90;;;;;;4974886;28;20030;-74
2022/08/03 03:40:28;;;;;;;1.75;0.38;;;22.50;99.90;;;;;;4974883;28;20118;-74
2022/08/03 03:42:55;;;;;;;0.95;0.30;;;22.50;99.90;;;;;;4974752;28;20434;-74
2022/08/03 03:45:24;;;;;;;1.00;0.30;;;22.50;99.90;;;;;;4974867;28;20117;-74
2022/08/03 03:47:53;;;;;;;1.65;0.50;;;22.60;99.90;;;;;;4959184;28;20103;-74
2022/08/03 03:50:23;;;;;;;0.90;0.30;;;22.50;99.90;;;;;;4975266;28;20053;-74
2022/08/03 03:52:50;;;;;;;1.45;0.30;;;22.60;99.90;;;;;;4974609;28;20027;-73
2022/08/03 03:55:18;;;;;;;1.02;0.50;;;22.70;99.90;;;;;;4974601;28;20377;-73
2022/08/03 03:57:46;;;;;;;1.27;0.47;;;22.70;99.90;;;;;;4975753;28;20502;-73
2022/08/03 04:00:15;;;;;;;1.95;0.38;;;22.60;99.90;;;;;;4974779;28;20019;-73
2022/08/03 04:02:42;;;;;;;0.93;0.30;;;22.70;99.90;;;;;;4974938;28;20045;-72
2022/08/03 04:11:12;;;;;;;0.90;0.30;;;22.50;99.90;;;;;;4975757;28;20575;-75
2022/08/03 04:13:56;;;;;;;3.33;0.50;;;22.70;99.90;;;;;;4974280;28;20041;-75
2022/08/03 04:16:27;;;;;;;1.52;0.30;;;22.70;99.90;;;;;;4975582;28;20510;-74
2022/08/03 04:19:00;;;;;;;0.82;0.30;;;22.90;99.90;;;;;;4974318;28;20023;-74
2022/08/03 04:21:30;;;;;;;1.05;0.30;;;22.80;99.90;;;;;;4974118;28;20096;-73
2022/08/03 04:24:02;;;;;;;0.95;0.30;;;22.80;99.90;;;;;;4958454;28;20027;-73
2022/08/03 04:26:38;;;;;;;1.33;0.30;;;22.80;99.90;;;;;;4974231;28;20038;-73
2022/08/03 04:29:08;;;;;;;0.90;0.47;;;22.90;99.90;;;;;;4973991;28;20035;-73
2022/08/03 04:31:36;;;;;;;0.88;0.40;;;22.90;99.90;;;;;;4973868;28;20029;-74
2022/08/03 04:34:04;;;;;;;0.70;0.30;;;22.90;99.90;;;;;;4975204;28;20079;-73
2022/08/03 04:36:36;;;;;;;0.95;0.30;;;22.90;99.90;;;;;;4974857;28;20033;-73
2022/08/03 04:39:31;;;;;;;1.63;0.63;;;22.90;99.90;;;;;;4975316;28;20019;-74
2022/08/03 04:42:04;;;;;;;1.00;0.30;;;22.90;99.90;;;;;;4971357;28;20031;-73
2022/08/03 04:44:35;;;;;;;1.02;0.30;;;23.10;99.90;;;;;;4975020;28;20019;-73
2022/08/03 04:47:03;;;;;;;1.00;0.20;;;23.00;99.90;;;;;;4973773;28;20023;-73
2022/08/03 04:49:31;;;;;;;2.58;0.65;;;22.90;99.90;;;;;;4974706;28;20051;-74
2022/08/03 04:51:59;;;;;;;1.08;0.50;;;22.80;99.90;;;;;;4957922;28;20035;-72
2022/08/03 04:54:26;;;;;;;1.60;0.70;;;22.80;99.90;;;;;;4973652;28;20031;-73
2022/08/03 04:56:54;;;;;;;1.60;0.50;;;22.90;99.90;;;;;;4974852;28;20030;-72
2022/08/03 04:59:24;;;;;;;1.45;0.40;;;22.80;99.90;;;;;;4974675;28;20027;-72
2022/08/03 05:01:51;;;;;;;0.98;0.32;;;22.70;99.90;;;;;;4973400;28;20081;-72
2022/08/03 05:04:19;;;;;;;1.00;0.30;;;22.70;99.90;;;;;;4973387;28;20030;-72
2022/08/03 05:06:46;;;;;;;2.60;0.40;;;22.60;99.90;;;;;;4973341;28;20491;-73
2022/08/03 05:09:14;;;;;;;0.65;0.22;;;22.60;99.90;;;;;;4974816;28;20031;-72
2022/08/03 05:11:41;;;;;;;1.63;0.40;;;22.60;99.90;;;;;;4974611;28;20027;-72
2022/08/03 05:14:08;;;;;;;1.75;0.57;;;22.60;99.90;;;;;;4973174;28;20034;-74
2022/08/03 05:16:36;;;;;;;1.98;0.43;;;22.50;99.90;;;;;;4974505;28;20022;-73
2022/08/03 05:19:04;;;;;;;1.42;0.40;;;22.60;99.90;;;;;;4973631;28;20055;-72
2022/08/03 05:21:31;;;;;;;1.42;0.40;;;22.60;99.90;;;;;;4974412;28;20030;-74
2022/08/03 05:23:58;;;;;;;1.85;0.50;;;22.50;99.90;;;;;;4974535;28;20050;-73
2022/08/03 05:26:25;;;;;;;2.10;0.50;;;22.50;99.90;;;;;;4974837;28;20022;-73
2022/08/03 05:28:53;;;;;;;1.33;0.40;;;22.60;99.90;;;;;;4974362;28;20113;-74
2022/08/03 05:31:20;;;;;;;1.05;0.50;;;22.50;99.90;;;;;;4973234;28;20122;-74
2022/08/03 05:33:48;;;;;;;1.58;0.30;;;22.50;99.90;;;;;;4974448;28;20105;-74
2022/08/03 05:36:15;;;;;;;1.35;0.22;;;22.50;99.90;;;;;;4972926;28;20542;-74
2022/08/03 05:38:43;;;;;;;2.35;0.40;;;22.50;99.90;;;;;;4973637;28;20360;-74
2022/08/03 05:41:10;;;;;;;1.05;0.40;;;22.50;99.90;;;;;;4974518;28;20050;-73
2022/08/03 05:43:38;;;;;;;1.63;0.50;;;22.50;99.90;;;;;;4974969;28;20019;-75
2022/08/03 05:46:05;;;;;;;1.45;0.52;;;22.50;99.90;;;;;;4974444;28;20023;-72
2022/08/03 05:48:32;;;;;;;2.30;0.45;;;22.40;99.90;;;;;;4975343;28;20447;-73
2022/08/03 05:50:59;;;;;;;3.03;0.40;;;22.30;99.90;;;;;;4976947;28;20033;-74
2022/08/03 05:53:27;;;;;;;0.70;0.40;;;22.30;99.90;;;;;;4978698;28;20027;-73
2022/08/03 05:55:55;;;;;;;1.02;0.40;;;22.20;99.90;;;;;;4976723;28;20097;-74
2022/08/03 05:58:23;;;;;;;1.08;0.30;;;22.10;99.90;;;;;;4976921;28;20023;-73
2022/08/03 06:00:50;;;;;;;1.45;0.50;;;22.10;99.90;;;;;;4976930;28;20023;-73
2022/08/03 06:03:18;;;;;;;1.60;0.40;;;22.10;99.90;;;;;;4976783;28;20065;-74
2022/08/03 06:05:46;;;;;;;1.77;0.55;;;22.00;99.90;;;;;;4976777;28;20019;-74
2022/08/03 06:08:14;;;;;;;1.65;0.70;;;21.90;99.90;;;;;;4977255;28;20038;-74
2022/08/03 06:10:41;;;;;;;1.38;0.55;;;21.80;99.90;;;;;;4976822;28;20022;-74
2022/08/03 06:13:08;;;;;;;2.35;1.00;;;21.70;99.90;;;;;;4978127;28;20023;-75
2022/08/03 06:15:36;;;;;;;3.88;1.13;;;21.70;99.90;;;;;;4976804;28;20026;-75
2022/08/03 06:18:03;;;;;;;2.67;0.60;;;21.70;99.90;;;;;;4976372;28;20042;-73
2022/08/03 06:20:30;;;;;;;0.98;0.50;;;21.60;99.90;;;;;;4976524;28;20497;-72
2022/08/03 06:22:59;;;;;;;2.58;0.77;;;21.60;99.90;;;;;;4977814;28;20018;-72
2022/08/03 06:25:27;;;;;;;1.08;0.40;;;21.40;99.90;;;;;;4977989;28;20023;-73
2022/08/03 06:27:55;;;;;;;1.15;0.35;;;21.40;99.90;;;;;;4976387;28;20121;-75
2022/08/03 06:30:22;;;;;;;1.10;0.47;;;21.30;99.90;;;;;;4976504;28;20031;-75
2022/08/03 06:32:49;;;;;;;3.50;0.90;;;21.20;99.90;;;;;;4976336;28;20033;-75
2022/08/03 06:35:18;;;;;;;4.00;0.70;;;21.20;99.90;;;;;;4976176;28;20027;-74
2022/08/03 06:37:47;;;;;;;2.40;0.40;;;21.10;99.90;;;;;;4977345;28;20027;-73
2022/08/03 06:40:18;;;;;;;3.20;0.50;;;21.00;99.90;;;;;;4977623;28;20110;-71
2022/08/03 06:42:45;;;;;;;1.30;0.40;;;21.00;99.90;;;;;;4977546;28;20093;-74
2022/08/03 06:45:14;;;;;;;4.05;0.90;;;20.90;99.90;;;;;;4975917;28;20038;-72
2022/08/03 06:47:44;;;;;;;1.38;0.60;;;20.90;99.90;;;;;;4976212;28;20395;-72
2022/08/03 06:50:11;;;;;;;1.60;0.50;;;20.70;99.90;;;;;;4977178;28;20125;-72
2022/08/03 06:52:39;;;;;;;1.15;0.40;;;20.50;99.90;;;;;;4977111;28;20085;-71
2022/08/03 06:55:09;;;;;;;1.48;0.40;;;20.40;99.90;;;;;;4977069;28;20027;-73
2022/08/03 06:57:36;;;;;;;3.97;0.50;;;20.30;99.90;;;;;;4975785;28;20038;-72
2022/08/03 07:00:08;;;;;;;2.30;0.93;;;20.10;99.90;;;;;;4976697;28;20019;-72
2022/08/03 07:02:35;;;;;;;0.90;0.45;;;20.00;99.90;;;;;;4977253;28;20102;-72
2022/08/03 07:05:03;;;;;;;1.77;0.50;;;19.90;99.90;;;;;;4977124;28;20015;-73
2022/08/03 07:07:30;;;;;;;1.60;0.40;;;19.90;99.90;;;;;;4976001;28;20527;-72
2022/08/03 07:09:58;;;;;;;2.10;0.50;;;19.70;99.90;;;;;;4975581;28;20033;-71
2022/08/03 07:12:28;;;;;;;1.25;0.40;;;19.60;99.90;;;;;;4975530;28;20113;-73
2022/08/03 07:14:56;;;;;;;1.23;0.40;;;19.40;99.90;;;;;;4975325;28;20085;-72
2022/08/03 07:17:24;;;;;;;3.28;0.65;;;19.30;99.90;;;;;;4975795;28;20042;-73
2022/08/03 07:19:52;;;;;;;2.15;0.70;;;19.20;99.90;;;;;;4975302;28;20410;-73
2022/08/03 07:22:20;;;;;;;1.30;0.82;;;19.10;99.90;;;;;;4958826;28;20034;-73
2022/08/03 07:24:47;;;;;;;0.77;0.55;;;19.00;99.90;;;;;;4974758;28;20030;-73
2022/08/03 07:27:16;;;;;;;1.80;0.50;;;19.00;99.90;;;;;;4976055;28;20029;-72
2022/08/03 07:29:43;;;;;;;0.47;0.38;;;18.90;99.90;;;;;;4974458;28;20029;-73
2022/08/03 07:32:11;;;;;;;0.90;0.50;;;18.90;99.90;;;;;;4958765;28;20451;-73
2022/08/03 07:34:38;;;;;;;1.52;0.50;;;18.80;99.90;;;;;;4974561;28;20027;-74
2022/08/03 07:37:07;;;;;;;1.45;0.60;;;18.70;99.90;;;;;;4975010;28;20407;-72
2022/08/03 07:39:34;;;;;;;1.88;0.85;;;18.70;99.90;;;;;;4976852;28;20019;-72
2022/08/03 07:42:02;;;;;;;0.95;0.47;;;18.60;99.90;;;;;;4975158;28;20062;-72
2022/08/03 07:44:29;;;;;;;0.98;0.70;;;18.50;99.90;;;;;;4975680;28;20447;-72
2022/08/03 07:46:56;;;;;;;1.23;0.50;;;18.40;99.90;;;;;;4976383;28;20487;-73
2022/08/03 07:49:24;;;;;;;2.55;0.75;;;18.30;99.90;;;;;;4974511;28;20363;-74
2022/08/03 07:54:38;;;;;;;1.02;0.70;;;18.40;99.90;;;;;;4955334;28;20118;-73
2022/08/03 07:57:06;;;;;;;3.05;0.70;;;18.40;99.90;;;;;;4976056;28;20130;-73
2022/08/03 07:59:34;;;;;;;1.35;0.70;;;18.30;99.90;;;;;;4976114;28;20101;-73
2022/08/03 08:02:05;;;;;;;1.42;0.68;;;18.30;99.90;;;;;;4975967;28;20078;-74
2022/08/03 08:04:33;;;;;;;2.35;0.95;;;18.30;99.90;;;;;;4976127;28;20074;-72
2022/08/03 08:07:00;;;;;;;0.68;0.40;;;18.20;99.90;;;;;;4975948;28;20031;-74
2022/08/03 08:09:29;;;;;;;2.60;0.80;;;18.10;99.90;;;;;;4974487;28;20049;-74
2022/08/03 08:11:57;;;;;;;1.40;0.60;;;18.10;99.90;;;;;;4958131;28;20042;-73
2022/08/03 08:14:25;;;;;;;1.38;0.68;;;18.10;99.90;;;;;;4974414;28;20081;-74
2022/08/03 08:16:54;;;;;;;1.88;0.52;;;18.10;99.90;;;;;;4958234;28;20034;-73
2022/08/03 08:19:21;;;;;;;1.67;0.60;;;18.10;99.90;;;;;;4975616;28;20019;-73
2022/08/03 08:21:50;;;;;;;2.65;0.73;;;18.10;99.90;;;;;;4974671;28;20112;-73
2022/08/03 08:24:17;;;;;;;2.45;0.90;;;18.10;99.90;;;;;;4974382;28;20081;-72
2022/08/03 08:26:44;;;;;;;1.77;0.70;;;18.10;99.90;;;;;;4974267;28;20498;-72
2022/08/03 08:29:12;;;;;;;1.42;0.70;;;18.10;99.90;;;;;;4975871;28;20030;-72
2022/08/03 08:31:39;;;;;;;1.73;0.75;;;18.00;99.90;;;;;;4975695;28;20033;-73
2022/08/03 08:34:09;;;;;;;0.90;0.65;;;17.90;99.90;;;;;;4975567;28;20023;-73
2022/08/03 08:36:36;;;;;;;4.75;1.05;;;17.80;99.90;;;;;;4958711;28;20035;-73
2022/08/03 08:39:04;;;;;;;2.50;0.95;;;17.80;99.90;;;;;;4975382;28;20030;-72
2022/08/03 08:41:34;;;;;;;1.70;0.90;;;17.70;99.90;;;;;;4974403;28;20089;-72
2022/08/03 08:44:02;;;;;;;2.40;1.30;;;17.70;99.90;;;;;;4974147;28;20093;-73
2022/08/03 08:46:34;;;;;;;2.10;0.90;;;17.60;99.90;;;;;;4975056;28;20479;-73
2022/08/03 08:49:02;;;;;;;2.63;1.00;;;17.70;99.90;;;;;;4973748;28;20053;-74
2022/08/03 08:51:38;;;;;;;2.53;1.52;;;17.60;99.90;;;;;;4975184;28;20054;-72
2022/08/03 08:54:17;;;;;;;1.83;1.10;;;17.50;99.90;;;;;;4959743;28;20027;-73
2022/08/03 08:56:46;;;;;;;2.05;1.10;;;17.50;99.90;;;;;;4975008;28;20023;-72
2022/08/03 08:59:14;;;;;;;3.10;1.70;;;17.40;99.90;;;;;;4958813;28;20027;-72
2022/08/03 09:01:46;;;;;;;2.40;1.50;;;17.30;99.90;;;;;;4974868;28;20559;-72
2022/08/03 09:04:14;;;;;;;3.33;1.48;;;17.20;99.90;;;;;;4975157;28;20050;-72
2022/08/03 09:06:41;;;;;;;5.82;1.52;;;17.10;99.90;;;;;;4973614;28;20142;-72
2022/08/03 09:09:09;;;;;;;3.92;1.25;;;17.10;99.90;;;;;;4975292;28;20023;-72
2022/08/03 09:11:36;;;;;;;3.40;1.73;;;17.00;99.90;;;;;;4973824;28;20034;-71
2022/08/03 09:14:04;;;;;;;3.22;1.52;;;16.80;99.90;;;;;;4973318;28;20023;-72
2022/08/03 09:16:31;;;;;;;4.07;1.88;;;16.80;99.90;;;;;;4974726;28;20058;-73
2022/08/03 09:19:14;;;;;;;7.50;1.95;;;16.70;99.90;;;;;;4974965;28;20039;-72
2022/08/03 09:21:44;;;;;;;3.88;1.95;;;16.60;99.90;;;;;;4973212;28;20041;-71
2022/08/03 09:24:12;;;;;;;4.63;1.55;;;16.50;99.90;;;;;;4975055;28;20022;-71
2022/08/03 09:26:39;;;;;;;3.83;1.77;;;16.40;99.90;;;;;;4957078;28;20026;-71
2022/08/03 09:29:09;;;;;;;4.40;1.85;;;16.30;99.90;;;;;;4974608;28;20475;-71
2022/08/03 09:31:45;;;;;;;4.80;1.98;;;16.20;99.90;;;;;;4973076;28;20023;-71
2022/08/03 09:34:16;;;;;;;5.50;1.70;;;16.20;99.90;;;;;;4974519;28;20089;-71
2022/08/03 09:36:48;;;;;;;5.65;1.90;;;16.10;99.90;;;;;;4975102;28;20019;-72
2022/08/03 09:39:20;;;;;;;5.13;2.20;;;16.10;99.90;;;;;;4973299;28;20030;-71
2022/08/03 09:42:07;;;;;;;3.42;1.67;;;16.10;99.90;;;;;;4957302;28;20027;-71
2022/08/03 09:44:43;;;;;;;1.85;1.10;;;16.30;99.90;;;;;;4973280;28;20037;-72
2022/08/03 09:47:12;;;;;;;1.60;1.05;;;16.40;99.90;;;;;;4974530;28;20457;-71
2022/08/03 09:49:41;;;;;;;2.72;1.20;;;16.60;99.90;;;;;;4972709;28;20059;-70
2022/08/03 09:52:18;;;;;;;5.15;1.30;;;16.70;99.90;;;;;;4973001;28;20034;-70
2022/08/03 09:54:51;;;;;;;2.22;1.10;;;16.70;99.90;;;;;;4974462;28;20031;-72
2022/08/03 09:57:24;;;;;;;2.38;0.90;;;16.90;99.90;;;;;;4973120;28;20541;-72
2022/08/03 09:59:57;;;;;;;2.78;1.10;;;17.00;99.90;;;;;;4972820;28;20023;-72
2022/08/03 10:02:27;;;;;;;1.75;1.25;;;17.00;99.90;;;;;;4972744;28;20092;-72
2022/08/03 10:04:55;;;;;;;2.45;1.10;;;16.90;99.90;;;;;;4957301;28;20081;-71
2022/08/03 10:07:24;;;;;;;3.17;1.30;;;16.90;99.90;;;;;;4972759;28;20173;-71
2022/08/03 10:10:00;;;;;;;2.35;1.00;;;16.90;99.90;;;;;;4956845;28;20061;-71
2022/08/03 10:12:29;;;;;;;2.55;0.93;;;17.00;99.90;;;;;;4957019;28;20027;-72
2022/08/03 10:14:57;;;;;;;1.95;1.10;;;17.00;99.90;;;;;;4972838;28;20027;-72
2022/08/03 10:17:24;;;;;;;2.50;1.13;;;17.00;99.90;;;;;;4972704;28;20059;-72
2022/08/03 10:19:51;;;;;;;1.67;0.98;;;17.00;99.90;;;;;;4974551;28;20034;-71
2022/08/03 10:22:22;;;;;;;2.20;1.10;;;17.00;99.90;;;;;;4972636;28;20333;-71
2022/08/03 10:25:09;;;;;;;1.90;0.93;;;17.10;99.90;;;;;;4972737;28;20034;-73
2022/08/03 10:27:41;;;;;;;3.25;1.23;;;17.10;99.90;;;;;;4972441;28;20035;-71
2022/08/03 10:30:11;;;;;;;5.00;1.15;;;17.10;99.90;;;;;;4973802;28;20031;-71
2022/08/03 10:32:48;;;;;;;1.58;1.00;;;17.10;99.90;;;;;;4974148;28;20070;-71
2022/08/03 10:35:19;;;;;;;1.80;1.00;;;17.00;99.90;;;;;;4977734;28;20034;-71
2022/08/03 10:37:57;;;;;;;2.38;1.40;;;17.10;99.90;;;;;;4976346;28;20035;-71
2022/08/03 10:40:28;;;;;;;2.55;1.27;;;17.10;99.90;;;;;;4977498;28;20023;-71
2022/08/03 10:43:02;;;;;;;3.80;1.42;;;17.10;99.90;;;;;;4977449;28;20019;-71
2022/08/03 10:45:33;;;;;;;3.40;1.85;;;17.10;99.90;;;;;;4976047;28;20027;-71
2022/08/03 10:48:02;;;;;;;2.17;0.90;;;17.10;99.90;;;;;;4977197;28;20025;-71
2022/08/03 10:50:30;;;;;;;3.60;1.30;;;17.10;99.90;;;;;;4960171;28;20057;-71
2022/08/03 10:52:59;;;;;;;2.08;1.10;;;17.10;99.90;;;;;;4976236;28;20050;-71
2022/08/03 10:58:38;;;;;;;2.10;0.80;;;17.10;99.90;;;;;;4977520;28;20046;-71
2022/08/03 11:01:10;;;;;;;3.00;1.15;;;17.20;99.90;;;;;;4977628;28;20379;-71
2022/08/03 11:03:52;;;;;;;1.88;1.13;;;17.20;99.90;;;;;;4977430;28;20173;-70
2022/08/03 11:06:21;;;;;;;2.85;1.30;;;17.10;99.90;;;;;;4977076;28;20026;-72
2022/08/03 11:09:10;;;;;;;1.98;1.17;;;17.00;99.90;;;;;;4975753;28;20386;-70
2022/08/03 11:11:39;;;;;;;1.55;0.90;;;17.10;99.90;;;;;;4962169;28;20089;-71
2022/08/03 11:14:17;;;;;;;3.83;1.35;;;17.00;99.90;;;;;;4976879;28;20023;-71
2022/08/03 11:16:51;;;;;;;4.05;1.13;;;17.10;99.90;;;;;;4977127;28;20022;-71
2022/08/03 11:19:26;;;;;;;3.20;1.25;;;17.10;99.90;;;;;;4976790;28;20417;-71
2022/08/03 11:21:55;;;;;;;3.13;0.98;;;17.00;99.90;;;;;;4976665;28;20546;-71
2022/08/03 11:24:45;;;;;;;2.42;1.15;;;17.00;99.90;;;;;;4976478;28;20019;-71
2022/08/03 11:27:17;;;;;;;2.40;1.30;;;17.00;99.90;;;;;;4975137;28;20487;-71
2022/08/03 11:29:58;;;;;;;2.20;1.13;;;17.00;99.90;;;;;;4976622;28;20034;-70
2022/08/03 11:32:42;;;;;;;2.40;0.80;;;17.00;99.90;;;;;;4976478;28;20030;-73
2022/08/03 11:35:18;;;;;;;2.78;1.13;;;17.00;99.90;;;;;;4976944;28;20106;-71
2022/08/03 11:37:54;;;;;;;3.17;1.13;;;16.90;99.90;;;;;;4974998;28;20073;-71
2022/08/03 11:40:47;;;;;;;2.22;0.95;;;16.80;99.90;;;;;;4974981;28;20034;-70
2022/08/03 11:43:29;;;;;;;3.47;1.10;;;16.80;99.90;;;;;;4974960;28;20026;-70
2022/08/03 11:46:20;;;;;;;2.10;1.10;;;16.80;99.90;;;;;;4975075;28;20019;-71
2022/08/03 11:48:48;;;;;;;;;;;16.80;99.90;;;;;;4976508;28;20403;-70
2022/08/03 11:51:27;;;;;;;2.15;0.88;;;16.80;99.90;;;;;;4974805;28;19953;-72
2022/08/03 11:53:54;;;;;;;4.78;1.00;;;16.70;99.90;;;;;;4974733;28;20031;-72
2022/08/03 11:56:22;;;;;;;3.05;1.35;;;16.70;99.90;;;;;;4974392;28;20043;-71
2022/08/03 11:58:52;;;;;;;3.35;1.30;;;16.60;99.90;;;;;;4974733;28;20348;-71
2022/08/03 12:01:21;;;;;;;3.72;1.55;;;16.50;99.90;;;;;;4976291;28;20378;-71
2022/08/03 12:03:49;;;;;;;1.95;1.30;;;16.50;99.90;;;;;;4974135;28;20050;-72
2022/08/03 12:06:17;;;;;;;1.90;1.00;;;16.50;99.90;;;;;;4974619;28;20118;-70
2022/08/03 12:08:45;;;;;;;2.03;1.13;;;16.50;99.90;;;;;;4974969;28;20109;-73
2022/08/03 12:11:15;;;;;;;2.17;1.10;;;16.40;99.90;;;;;;4974501;28;20390;-71
2022/08/03 12:13:50;;;;;;;3.20;1.43;;;16.30;99.90;;;;;;4958429;28;20027;-71
2022/08/03 12:16:24;;;;;;;2.80;1.00;;;16.20;99.90;;;;;;4974227;28;20479;-71
2022/08/03 12:19:00;;;;;;;2.13;0.80;;;16.20;99.90;;;;;;4958864;28;20125;-71
2022/08/03 12:21:28;;;;;;;1.77;1.00;;;16.20;99.90;;;;;;4974373;28;20440;-71
2022/08/03 12:24:01;;;;;;;2.40;1.00;;;16.10;99.90;;;;;;4974325;28;20019;-71
2022/08/03 12:26:30;;;;;;;3.33;1.15;;;16.10;99.90;;;;;;4974282;28;20030;-71
2022/08/03 12:28:57;;;;;;;2.38;1.20;;;16.10;99.90;;;;;;4975631;28;20034;-71
2022/08/03 12:31:25;;;;;;;4.30;1.30;;;16.10;99.90;;;;;;4975731;28;20027;-71
2022/08/03 12:34:01;;;;;;;3.65;1.23;;;16.10;99.90;;;;;;4974282;28;20403;-72
2022/08/03 12:36:33;;;;;;;2.75;1.10;;;16.10;99.90;;;;;;4976445;28;20033;-71
2022/08/03 12:39:06;;;;;;;1.77;0.90;;;16.10;99.90;;;;;;4974048;28;20031;-71
2022/08/03 12:41:39;;;;;;;2.05;1.20;;;16.10;99.90;;;;;;4975483;28;20027;-73
2022/08/03 12:44:09;;;;;;;2.58;1.30;;;16.10;99.90;;;;;;5181506;23;20058;-74
2022/08/03 12:46:38;;;;;;;3.25;1.30;;;16.00;99.90;;;;;;4974832;28;20041;-74
2022/08/03 12:49:17;;;;;;;3.00;1.13;;;15.90;99.90;;;;;;4975850;28;20037;-75
2022/08/03 12:51:44;;;;;;;2.45;1.50;;;15.90;99.90;;;;;;4974057;28;20054;-73
2022/08/03 12:54:21;;;;;;;3.95;1.77;;;15.80;99.90;;;;;;4973917;28;20033;-75
2022/08/03 12:57:01;;;;;;;3.88;1.80;;;15.70;99.90;;;;;;4973583;28;20118;-75
2022/08/03 12:59:44;;;;;;;4.55;1.70;;;15.70;99.90;;;;;;4975558;28;20023;-74
2022/08/03 13:02:18;;;;;;;2.97;1.35;;;15.60;99.90;;;;;;4974091;28;20082;-75
2022/08/03 13:04:47;;;;;;;4.45;1.80;;;15.50;99.90;;;;;;4974044;28;20097;-75
2022/08/03 13:07:16;;;;;;;3.50;1.42;;;15.50;99.90;;;;;;4975301;28;20101;-75
2022/08/03 13:09:53;;;;;;;2.90;1.50;;;15.40;99.90;;;;;;4974061;28;20113;-75
2022/08/03 13:12:22;;;;;;;3.50;1.35;;;15.40;99.90;;;;;;4974222;28;20027;-74
2022/08/03 13:14:57;;;;;;;2.63;1.27;;;15.40;99.90;;;;;;4975821;28;20085;-76
2022/08/03 13:17:25;;;;;;;2.55;0.98;;;15.50;99.90;;;;;;4975117;28;20023;-73